createdAt,value
2022-11-07T00:00:21.794Z,9.66
2022-11-07T00:02:23.298Z,9.64
2022-11-07T00:04:24.850Z,9.61
2022-11-07T00:06:26.053Z,9.64
2022-11-07T00:08:27.383Z,9.66
2022-11-07T00:10:29.107Z,9.74
2022-11-07T00:12:30.199Z,9.67
2022-11-07T00:14:31.343Z,9.73
2022-11-07T00:16:33.229Z,9.68
2022-11-07T00:18:35.095Z,9.59
2022-11-07T00:20:36.109Z,9.58
2022-11-07T00:22:37.597Z,9.57
2022-11-07T00:24:39.324Z,9.59
2022-11-07T00:26:40.519Z,9.51
2022-11-07T00:28:41.811Z,9.58
2022-11-07T00:30:43.294Z,9.54
2022-11-07T00:32:44.676Z,9.57
2022-11-07T00:34:46.046Z,9.54
2022-11-07T00:36:47.907Z,9.49
2022-11-07T00:38:48.863Z,9.49
2022-11-07T00:40:50.574Z,9.51
2022-11-07T00:42:52.331Z,9.38
2022-11-07T00:44:54.170Z,9.34
2022-11-07T00:46:55.264Z,9.28
2022-11-07T00:48:56.641Z,9.25
2022-11-07T00:50:57.763Z,9.2
2022-11-07T00:52:59.251Z,9.13
2022-11-07T00:57:02.378Z,9.05
2022-11-07T00:59:03.962Z,9.01
2022-11-07T01:01:05.825Z,8.97
2022-11-07T01:03:06.972Z,8.97
2022-11-07T01:05:08.335Z,8.96
2022-11-07T01:07:10.108Z,8.98
2022-11-07T01:09:11.711Z,9.01
2022-11-07T01:11:13.455Z,9.02
2022-11-07T01:13:15.565Z,9.06
2022-11-07T01:15:16.865Z,9.1
2022-11-07T01:17:18.076Z,9.11
2022-11-07T01:19:19.642Z,9.11
2022-11-07T01:22:04.822Z,9.12
2022-11-07T01:24:06.623Z,9.13
2022-11-07T01:26:07.698Z,9.17
2022-11-07T01:28:08.916Z,9.22
2022-11-07T01:30:10.602Z,9.21
2022-11-07T01:32:11.907Z,9.21
2022-11-07T01:34:13.748Z,9.21
2022-11-07T01:36:15.105Z,9.23
2022-11-07T01:38:16.214Z,9.2
2022-11-07T01:40:18.032Z,9.19
2022-11-07T01:42:19.211Z,9.2
2022-11-07T01:44:28.570Z,9.21
2022-11-07T01:46:22.156Z,9.14
2022-11-07T01:48:23.805Z,9.15
2022-11-07T01:50:25.235Z,9.15
2022-11-07T01:52:26.716Z,9.13
2022-11-07T01:54:28.161Z,9.13
2022-11-07T01:56:29.721Z,9.15
2022-11-07T01:58:31.332Z,9.23
2022-11-07T02:00:32.335Z,9.16
2022-11-07T02:02:34.258Z,9.18
2022-11-07T02:04:35.193Z,9.18
2022-11-07T02:06:37.052Z,9.25
2022-11-07T02:08:38.512Z,9.24
2022-11-07T02:10:39.525Z,9.25
2022-11-07T02:12:41.283Z,9.3
2022-11-07T02:14:43.159Z,9.29
2022-11-07T02:16:44.547Z,9.39
2022-11-07T02:18:45.784Z,9.39
2022-11-07T02:20:47.470Z,9.36
2022-11-07T02:22:49.101Z,9.37
2022-11-07T02:24:50.394Z,9.41
2022-11-07T02:26:52.230Z,9.38
2022-11-07T02:28:53.853Z,9.4
2022-11-07T02:30:55.096Z,9.47
2022-11-07T02:32:56.553Z,9.5
2022-11-07T02:34:57.895Z,9.54
2022-11-07T02:36:59.391Z,9.56
2022-11-07T02:39:00.612Z,9.55
2022-11-07T02:41:01.785Z,9.62
2022-11-07T02:43:02.777Z,9.64
2022-11-07T02:45:04.250Z,9.62
2022-11-07T02:47:05.953Z,9.58
2022-11-07T02:49:07.168Z,9.58
2022-11-07T02:51:08.648Z,9.58
2022-11-07T02:53:10.177Z,9.58
2022-11-07T02:55:11.745Z,9.64
2022-11-07T02:57:12.926Z,9.71
2022-11-07T02:59:14.062Z,9.68
2022-11-07T03:01:15.554Z,9.73
2022-11-07T03:03:17.486Z,9.69
2022-11-07T03:05:18.738Z,9.71
2022-11-07T03:07:20.160Z,9.73
2022-11-07T03:09:21.509Z,9.75
2022-11-07T03:11:23.204Z,9.71
2022-11-07T03:13:24.646Z,9.73
2022-11-07T03:15:25.799Z,9.72
2022-11-07T03:17:27.469Z,9.72
2022-11-07T03:19:29.259Z,9.73
2022-11-07T03:21:30.751Z,9.79
2022-11-07T03:23:32.451Z,9.76
2022-11-07T03:25:33.469Z,9.72
2022-11-07T03:27:35.045Z,9.67
2022-11-07T03:29:36.740Z,9.68
2022-11-07T03:31:38.327Z,9.67
2022-11-07T03:33:39.577Z,9.72
2022-11-07T03:35:40.748Z,9.66
2022-11-07T03:37:41.946Z,9.54
2022-11-07T03:39:43.537Z,9.49
2022-11-07T03:41:44.668Z,9.39
2022-11-07T03:43:46.550Z,9.35
2022-11-07T03:45:47.566Z,9.36
2022-11-07T03:47:48.549Z,9.31
2022-11-07T03:49:50.212Z,9.29
2022-11-07T03:51:51.788Z,9.26
2022-11-07T03:53:53.322Z,9.22
2022-11-07T03:57:55.820Z,9.29
2022-11-07T03:59:56.805Z,9.27
2022-11-07T04:01:58.139Z,9.32
2022-11-07T04:03:59.939Z,9.38
2022-11-07T04:06:01.296Z,9.36
2022-11-07T04:08:02.732Z,9.43
2022-11-07T04:10:04.612Z,9.4
2022-11-07T04:12:05.842Z,9.39
2022-11-07T04:14:07.050Z,9.5
2022-11-07T04:16:10.448Z,9.44
2022-11-07T04:18:09.696Z,9.44
2022-11-07T04:20:10.776Z,9.49
2022-11-07T04:22:12.231Z,9.57
2022-11-07T04:24:13.292Z,9.6
2022-11-07T04:26:15.177Z,9.6
2022-11-07T04:28:16.795Z,9.6
2022-11-07T04:30:18.192Z,9.59
2022-11-07T04:32:19.197Z,9.7
2022-11-07T04:34:20.754Z,9.81
2022-11-07T04:36:22.208Z,9.8
2022-11-07T04:38:23.269Z,9.77
2022-11-07T04:40:24.234Z,9.81
2022-11-07T04:42:25.371Z,9.87
2022-11-07T04:44:26.364Z,9.83
2022-11-07T04:46:27.961Z,9.78
2022-11-07T04:48:29.032Z,9.79
2022-11-07T04:50:30.200Z,9.83
2022-11-07T04:52:31.206Z,9.85
2022-11-07T04:54:32.243Z,9.88
2022-11-07T04:56:34.530Z,9.94
2022-11-07T04:58:34.592Z,9.96
2022-11-07T05:00:35.799Z,9.97
2022-11-07T05:02:36.847Z,9.97
2022-11-07T05:04:38.645Z,10.02
2022-11-07T05:06:40.059Z,10.05
2022-11-07T05:08:41.658Z,10.07
2022-11-07T05:10:43.230Z,10.16
2022-11-07T05:12:44.207Z,10.15
2022-11-07T05:14:46.042Z,10.15
2022-11-07T05:16:47.297Z,10.14
2022-11-07T05:18:49.107Z,10.15
2022-11-07T05:20:50.652Z,10.22
2022-11-07T05:22:56.094Z,10.29
2022-11-07T05:24:54.067Z,10.25
2022-11-07T05:26:55.307Z,10.27
2022-11-07T05:28:56.961Z,10.31
2022-11-07T05:30:58.626Z,10.31
2022-11-07T05:33:00.532Z,10.28
2022-11-07T05:35:01.672Z,10.36
2022-11-07T05:37:03.426Z,10.42
2022-11-07T05:39:05.070Z,10.42
2022-11-07T05:41:06.612Z,10.44
2022-11-07T05:43:07.861Z,10.45
2022-11-07T05:45:09.272Z,10.34
2022-11-07T05:47:11.125Z,10.26
2022-11-07T05:49:12.542Z,10.2
2022-11-07T05:51:13.544Z,10.14
2022-11-07T05:53:15.332Z,10.18
2022-11-07T05:55:16.687Z,10.11
2022-11-07T05:57:18.069Z,10.07
2022-11-07T05:59:19.677Z,10.06
2022-11-07T06:01:21.283Z,10.05
2022-11-07T06:03:23.132Z,10.19
2022-11-07T06:05:24.764Z,10.16
2022-11-07T06:07:25.814Z,10.15
2022-11-07T06:09:27.025Z,10.15
2022-11-07T06:11:28.579Z,10.14
2022-11-07T06:13:29.512Z,10.21
2022-11-07T06:15:31.301Z,10.18
2022-11-07T06:17:32.628Z,10.18
2022-11-07T06:21:35.121Z,10.15
2022-11-07T06:23:36.706Z,10.15
2022-11-07T06:25:37.726Z,10.13
2022-11-07T06:27:39.171Z,10.11
2022-11-07T06:29:40.269Z,10.15
2022-11-07T06:31:41.443Z,10.18
2022-11-07T06:33:42.633Z,10.17
2022-11-07T06:35:43.899Z,10.28
2022-11-07T06:37:45.387Z,10.27
2022-11-07T06:39:46.294Z,10.26
2022-11-07T06:41:47.958Z,10.23
2022-11-07T06:43:49.770Z,10.28
2022-11-07T06:45:50.975Z,10.26
2022-11-07T06:47:52.181Z,10.28
2022-11-07T06:49:53.558Z,10.35
2022-11-07T06:51:55.481Z,10.44
2022-11-07T06:53:57.240Z,10.51
2022-11-07T06:55:58.640Z,10.52
2022-11-07T06:58:00.353Z,10.53
2022-11-07T07:00:01.841Z,10.64
2022-11-07T07:04:04.639Z,10.66
2022-11-07T07:06:05.995Z,10.66
2022-11-07T07:08:07.266Z,10.72
2022-11-07T07:10:08.475Z,10.78
2022-11-07T07:12:10.074Z,10.79
2022-11-07T07:14:11.846Z,10.76
2022-11-07T07:16:13.062Z,10.76
2022-11-07T07:18:14.006Z,10.77
2022-11-07T07:20:15.784Z,10.78
2022-11-07T07:22:17.287Z,10.76
2022-11-07T07:24:18.892Z,10.78
2022-11-07T07:26:20.021Z,10.81
2022-11-07T07:28:21.812Z,10.85
2022-11-07T07:30:23.118Z,10.87
2022-11-07T07:32:24.500Z,10.87
2022-11-07T07:34:26.042Z,10.86
2022-11-07T07:36:27.352Z,10.87
2022-11-07T07:38:28.812Z,10.89
2022-11-07T07:40:29.802Z,10.95
2022-11-07T07:42:30.919Z,10.99
2022-11-07T07:44:32.470Z,11.07
2022-11-07T07:46:33.577Z,11.1
2022-11-07T07:48:35.297Z,11.2
2022-11-07T07:50:36.669Z,11.24
2022-11-07T07:52:37.941Z,11.25
2022-11-07T07:54:39.530Z,11.25
2022-11-07T07:56:40.427Z,11.27
2022-11-07T07:58:42.199Z,11.27
2022-11-07T08:00:43.814Z,11.31
2022-11-07T08:02:45.141Z,11.38
2022-11-07T08:04:46.030Z,11.47
2022-11-07T08:07:31.665Z,11.6
2022-11-07T08:09:33.345Z,11.6
2022-11-07T08:11:34.847Z,11.67
2022-11-07T08:13:36.253Z,11.75
2022-11-07T08:15:37.875Z,12.04
2022-11-07T08:17:39.416Z,12.19
2022-11-07T08:19:40.937Z,12.22
2022-11-07T08:21:41.987Z,12.15
2022-11-07T08:23:43.160Z,12.08
2022-11-07T08:25:44.753Z,12.05
2022-11-07T08:27:46.539Z,12
2022-11-07T08:29:48.251Z,11.91
2022-11-07T08:31:49.210Z,11.88
2022-11-07T08:33:50.518Z,11.8
2022-11-07T08:35:51.770Z,11.81
2022-11-07T08:37:53.294Z,11.8
2022-11-07T08:39:54.731Z,11.84
2022-11-07T08:41:56.451Z,11.84
2022-11-07T08:43:58.340Z,11.86
2022-11-07T08:46:00.149Z,11.87
2022-11-07T08:48:01.171Z,12
2022-11-07T08:50:02.368Z,11.95
2022-11-07T08:52:04.032Z,12
2022-11-07T08:54:04.937Z,12.12
2022-11-07T08:56:06.293Z,12.21
2022-11-07T08:58:07.547Z,12.39
2022-11-07T09:00:08.895Z,12.44
2022-11-07T09:02:47.809Z,12.55
2022-11-07T09:04:11.608Z,12.72
2022-11-07T09:06:12.616Z,12.67
2022-11-07T09:08:13.759Z,12.65
2022-11-07T09:10:15.386Z,12.68
2022-11-07T09:12:16.911Z,12.63
2022-11-07T09:14:17.846Z,12.59
2022-11-07T09:16:19.018Z,12.72
2022-11-07T09:18:20.312Z,12.66
2022-11-07T09:20:21.855Z,12.75
2022-11-07T09:22:22.912Z,12.68
2022-11-07T09:24:23.837Z,12.7
2022-11-07T09:26:24.925Z,12.82
2022-11-07T09:28:26.674Z,12.82
2022-11-07T09:30:28.473Z,12.89
2022-11-07T09:32:44.249Z,12.88
2022-11-07T09:34:31.583Z,12.89
2022-11-07T09:36:32.899Z,12.88
2022-11-07T09:38:34.018Z,13.08
2022-11-07T09:40:35.537Z,12.99
2022-11-07T09:42:36.778Z,13.09
2022-11-07T09:44:38.335Z,13.26
2022-11-07T09:46:39.501Z,13.39
2022-11-07T09:48:41.115Z,13.39
2022-11-07T09:50:42.572Z,13.64
2022-11-07T09:52:43.537Z,13.45
2022-11-07T09:54:46.681Z,13.45
2022-11-07T09:56:45.768Z,13.36
2022-11-07T09:58:46.650Z,13.39
2022-11-07T10:00:48.328Z,13.39
2022-11-07T10:02:49.230Z,13.4
2022-11-07T10:04:50.534Z,13.37
2022-11-07T10:06:51.499Z,13.41
2022-11-07T10:08:53.024Z,13.57
2022-11-07T10:10:54.572Z,13.51
2022-11-07T10:12:56.059Z,13.3
2022-11-07T10:14:57.722Z,13.49
2022-11-07T10:16:59.790Z,13.75
2022-11-07T10:21:30.862Z,13.91
2022-11-07T10:23:04.752Z,13.75
2022-11-07T10:25:05.719Z,13.5
2022-11-07T10:27:07.482Z,13.44
2022-11-07T10:29:08.639Z,13.42
2022-11-07T10:31:10.107Z,13.34
2022-11-07T10:33:11.790Z,13.38
2022-11-07T10:35:12.802Z,13.39
2022-11-07T10:37:14.444Z,13.62
2022-11-07T10:39:15.308Z,13.86
2022-11-07T10:41:16.167Z,14.07
2022-11-07T10:43:17.578Z,14.18
2022-11-07T10:45:18.659Z,14.29
2022-11-07T10:47:20.419Z,14.2
2022-11-07T10:49:22.011Z,14.27
2022-11-07T10:51:23.209Z,13.91
2022-11-07T10:53:24.636Z,13.79
2022-11-07T10:55:25.966Z,13.93
2022-11-07T10:57:27.541Z,13.79
2022-11-07T10:59:34.739Z,13.8
2022-11-07T11:01:30.905Z,13.8
2022-11-07T11:03:43.056Z,13.8
2022-11-07T11:05:33.382Z,13.81
2022-11-07T11:07:34.790Z,13.83
2022-11-07T11:09:36.511Z,14.03
2022-11-07T11:11:37.946Z,14.03
2022-11-07T11:13:39.661Z,13.88
2022-11-07T11:15:41.190Z,13.85
2022-11-07T11:17:42.068Z,13.84
2022-11-07T11:19:43.475Z,13.85
2022-11-07T11:21:45.307Z,13.79
2022-11-07T11:23:46.863Z,13.74
2022-11-07T11:25:48.179Z,13.5
2022-11-07T11:27:49.706Z,13.17
2022-11-07T11:29:50.794Z,12.99
2022-11-07T11:31:52.380Z,12.91
2022-11-07T11:33:53.873Z,12.91
2022-11-07T11:35:54.910Z,12.9
2022-11-07T11:37:56.139Z,12.89
2022-11-07T11:39:57.988Z,12.8
2022-11-07T11:41:59.711Z,12.78
2022-11-07T11:44:01.022Z,12.75
2022-11-07T11:46:02.149Z,12.77
2022-11-07T11:48:03.173Z,12.8
2022-11-07T11:50:04.385Z,12.86
2022-11-07T11:52:06.110Z,12.81
2022-11-07T11:54:07.271Z,12.82
2022-11-07T11:56:08.333Z,12.89
2022-11-07T11:58:10.019Z,13
2022-11-07T12:00:11.877Z,13.03
2022-11-07T12:02:12.783Z,13.09
2022-11-07T12:04:14.047Z,13
2022-11-07T12:06:15.252Z,12.81
2022-11-07T12:08:16.652Z,12.79
2022-11-07T12:10:17.835Z,12.63
2022-11-07T12:12:19.002Z,12.49
2022-11-07T12:14:20.235Z,12.33
2022-11-07T12:16:21.920Z,12.32
2022-11-07T12:18:23.344Z,12.31
2022-11-07T12:20:24.684Z,12.3
2022-11-07T12:22:25.888Z,12.3
2022-11-07T12:24:27.244Z,12.32
2022-11-07T12:26:28.955Z,12.31
2022-11-07T12:28:30.423Z,12.41
2022-11-07T12:30:32.056Z,12.63
2022-11-07T12:32:33.015Z,12.88
2022-11-07T12:34:34.408Z,13.12
2022-11-07T12:36:35.380Z,13.36
2022-11-07T12:38:36.959Z,13.87
2022-11-07T12:40:37.840Z,14.01
2022-11-07T12:44:40.742Z,13.78
2022-11-07T12:46:41.949Z,14.04
2022-11-07T12:48:43.654Z,14
2022-11-07T12:50:45.210Z,13.48
2022-11-07T12:52:46.928Z,13.57
2022-11-07T12:54:48.372Z,13.8
2022-11-07T12:56:50.020Z,13.76
2022-11-07T12:58:50.895Z,13.6
2022-11-07T13:00:51.884Z,13.47
2022-11-07T13:02:52.794Z,13.4
2022-11-07T13:04:54.208Z,13.44
2022-11-07T13:06:55.120Z,13.29
2022-11-07T13:08:56.543Z,13.31
2022-11-07T13:10:57.972Z,13.34
2022-11-07T13:12:59.757Z,13.33
2022-11-07T13:15:01.388Z,13.37
2022-11-07T13:17:02.639Z,13.48
2022-11-07T13:19:04.513Z,13.56
2022-11-07T13:21:05.466Z,13.57
2022-11-07T13:23:06.378Z,13.4
2022-11-07T13:25:09.492Z,13.53
2022-11-07T13:27:08.859Z,13.73
2022-11-07T13:29:10.572Z,13.76
2022-11-07T13:33:13.843Z,13.72
2022-11-07T13:35:14.912Z,13.85
2022-11-07T13:37:15.847Z,13.73
2022-11-07T13:39:16.732Z,13.97
2022-11-07T13:41:17.750Z,14.14
2022-11-07T13:43:19.134Z,14.1
2022-11-07T13:45:20.155Z,14.41
2022-11-07T13:47:21.119Z,14.26
2022-11-07T13:49:22.214Z,14.29
2022-11-07T13:51:23.296Z,14.45
2022-11-07T13:53:24.568Z,14.38
2022-11-07T13:55:25.972Z,14.27
2022-11-07T13:57:27.506Z,14.28
2022-11-07T13:59:32.552Z,14.38
2022-11-07T14:01:30.577Z,14.54
2022-11-07T14:03:31.839Z,14.78
2022-11-07T14:05:33.048Z,14.7
2022-11-07T14:07:33.981Z,14.54
2022-11-07T14:09:35.918Z,14.69
2022-11-07T14:11:36.581Z,14.88
2022-11-07T14:13:40.858Z,14.84
2022-11-07T14:15:39.616Z,14.85
2022-11-07T14:17:40.659Z,14.86
2022-11-07T14:19:42.337Z,14.96
2022-11-07T14:21:44.099Z,14.82
2022-11-07T14:23:44.974Z,14.79
2022-11-07T14:25:46.795Z,14.79
2022-11-07T14:27:48.206Z,14.55
2022-11-07T14:29:49.086Z,14.38
2022-11-07T14:31:49.947Z,14.26
2022-11-07T14:33:51.649Z,14.12
2022-11-07T14:35:53.417Z,13.97
2022-11-07T14:37:54.486Z,13.96
2022-11-07T14:39:55.868Z,13.89
2022-11-07T14:41:57.381Z,13.85
2022-11-07T14:43:58.512Z,13.79
2022-11-07T14:46:12.739Z,13.78
2022-11-07T14:48:01.928Z,13.75
2022-11-07T14:50:02.896Z,13.66
2022-11-07T14:52:47.630Z,13.6
2022-11-07T14:54:49.284Z,13.59
2022-11-07T14:56:50.279Z,13.58
2022-11-07T14:58:51.416Z,13.51
2022-11-07T15:00:53.346Z,13.42
2022-11-07T15:02:54.490Z,13.47
2022-11-07T15:05:00.227Z,13.48
2022-11-07T15:08:58.186Z,13.4
2022-11-07T15:10:59.913Z,13.41
2022-11-07T15:13:01.263Z,13.34
2022-11-07T15:15:03.007Z,13.3
2022-11-07T15:17:04.078Z,13.31
2022-11-07T15:19:05.409Z,13.24
2022-11-07T15:21:06.714Z,13.19
2022-11-07T15:23:08.397Z,13.18
2022-11-07T15:25:09.561Z,13.12
2022-11-07T15:27:10.993Z,13.03
2022-11-07T15:29:12.056Z,13
2022-11-07T15:31:13.896Z,12.92
2022-11-07T15:33:14.834Z,12.88
2022-11-07T15:35:37.679Z,12.83
2022-11-07T15:37:17.260Z,12.74
2022-11-07T15:39:18.661Z,12.7
2022-11-07T15:41:19.622Z,12.76
2022-11-07T15:43:20.657Z,12.74
2022-11-07T15:45:22.580Z,12.78
2022-11-07T15:47:24.277Z,12.8
2022-11-07T15:49:25.954Z,12.69
2022-11-07T15:51:27.633Z,12.56
2022-11-07T15:53:28.988Z,12.44
2022-11-07T15:55:30.152Z,12.46
2022-11-07T15:57:31.226Z,12.43
2022-11-07T15:59:32.729Z,12.32
2022-11-07T16:01:34.070Z,12.33
2022-11-07T16:03:35.323Z,12.28
2022-11-07T16:05:36.528Z,12.26
2022-11-07T16:07:45.672Z,12.24
2022-11-07T16:09:39.047Z,12.24
2022-11-07T16:11:40.508Z,12.16
2022-11-07T16:13:42.217Z,12.23
2022-11-07T16:15:43.220Z,12.25
2022-11-07T16:17:44.599Z,12.31
2022-11-07T16:19:45.886Z,12.35
2022-11-07T16:21:47.705Z,12.36
2022-11-07T16:23:48.778Z,12.37
2022-11-07T16:25:50.624Z,12.33
2022-11-07T16:27:51.613Z,12.34
2022-11-07T16:29:52.906Z,12.35
2022-11-07T16:31:53.907Z,12.3
2022-11-07T16:33:55.084Z,12.26
2022-11-07T16:35:56.631Z,12.21
2022-11-07T16:37:58.251Z,12.19
2022-11-07T16:39:59.805Z,12.19
2022-11-07T16:42:01.034Z,12.13
2022-11-07T16:44:02.742Z,12.15
2022-11-07T16:46:04.130Z,12.15
2022-11-07T16:48:05.273Z,12.1
2022-11-07T16:50:06.844Z,12.02
2022-11-07T16:52:08.001Z,12.01
2022-11-07T16:54:09.443Z,12.04
2022-11-07T16:56:10.414Z,12.11
2022-11-07T16:58:11.735Z,12.21
2022-11-07T17:00:13.565Z,12.27
2022-11-07T17:02:19.368Z,12.18
2022-11-07T17:04:16.841Z,12.1
2022-11-07T17:06:18.150Z,12.06
2022-11-07T17:08:19.862Z,11.99
2022-11-07T17:10:21.649Z,11.95
2022-11-07T17:12:22.665Z,11.97
2022-11-07T17:14:23.624Z,11.83
2022-11-07T17:16:25.522Z,11.82
2022-11-07T17:18:27.215Z,11.93
2022-11-07T17:20:49.715Z,12.02
2022-11-07T17:22:29.808Z,12.03
2022-11-07T17:24:31.177Z,12.03
2022-11-07T17:26:32.905Z,11.93
2022-11-07T17:28:33.805Z,11.8
2022-11-07T17:30:34.850Z,11.83
2022-11-07T17:32:36.757Z,11.85
2022-11-07T17:34:46.665Z,11.82
2022-11-07T17:36:39.674Z,11.87
2022-11-07T17:38:40.539Z,11.9
2022-11-07T17:40:41.570Z,11.87
2022-11-07T17:42:43.067Z,11.88
2022-11-07T17:44:44.090Z,11.81
2022-11-07T17:46:45.032Z,11.82
2022-11-07T17:48:47.222Z,11.78
2022-11-07T17:50:47.916Z,11.72
2022-11-07T17:52:49.639Z,11.74
2022-11-07T17:54:51.032Z,11.75
2022-11-07T17:56:52.199Z,11.75
2022-11-07T17:58:53.220Z,11.8
2022-11-07T18:00:54.997Z,11.8
2022-11-07T18:02:56.009Z,11.85
2022-11-07T18:04:57.362Z,11.96
2022-11-07T18:06:58.450Z,11.94
2022-11-07T18:09:00.713Z,11.89
2022-11-07T18:11:01.237Z,11.85
2022-11-07T18:13:02.819Z,11.79
2022-11-07T18:15:04.050Z,11.79
2022-11-07T18:17:05.558Z,11.79
2022-11-07T18:19:06.760Z,11.78
2022-11-07T18:21:08.365Z,11.8
2022-11-07T18:23:09.763Z,11.78
2022-11-07T18:25:11.489Z,11.81
2022-11-07T18:27:12.974Z,11.82
2022-11-07T18:29:14.150Z,11.92
2022-11-07T18:31:15.540Z,11.93
2022-11-07T18:33:17.267Z,11.92
2022-11-07T18:35:18.479Z,12.05
2022-11-07T18:37:19.891Z,11.98
2022-11-07T18:39:21.220Z,11.9
2022-11-07T18:41:22.829Z,11.96
2022-11-07T18:43:24.316Z,12.07
2022-11-07T18:45:25.586Z,12.06
2022-11-07T18:47:27.168Z,12.13
2022-11-07T18:49:29.041Z,12.05
2022-11-07T18:51:30.754Z,11.99
2022-11-07T18:53:31.871Z,11.98
2022-11-07T18:55:33.625Z,11.85
2022-11-07T18:57:35.367Z,11.86
2022-11-07T18:59:37.010Z,11.84
2022-11-07T19:01:38.083Z,11.82
2022-11-07T19:03:39.140Z,11.74
2022-11-07T19:05:41.331Z,11.64
2022-11-07T19:07:42.132Z,11.57
2022-11-07T19:09:43.034Z,11.44
2022-11-07T19:13:45.585Z,11.27
2022-11-07T19:15:46.519Z,11.16
2022-11-07T19:17:48.278Z,11.14
2022-11-07T19:19:49.287Z,11.07
2022-11-07T19:21:51.020Z,11.02
2022-11-07T19:23:52.380Z,10.86
2022-11-07T19:25:53.648Z,10.8
2022-11-07T19:27:54.980Z,10.76
2022-11-07T19:29:56.337Z,10.71
2022-11-07T19:31:57.485Z,10.62
2022-11-07T19:33:59.377Z,10.54
2022-11-07T19:36:00.823Z,10.45
2022-11-07T19:38:05.025Z,10.35
2022-11-07T19:40:03.059Z,10.25
2022-11-07T19:42:04.463Z,10.2
2022-11-07T19:44:05.998Z,10.15
2022-11-07T19:46:07.525Z,10.1
2022-11-07T19:48:09.246Z,10.05
2022-11-07T19:50:10.989Z,10.05
2022-11-07T19:52:11.979Z,10.28
2022-11-07T19:54:13.010Z,10.25
2022-11-07T19:56:13.971Z,10.44
2022-11-07T19:58:15.417Z,10.28
2022-11-07T20:00:16.540Z,10.19
2022-11-07T20:02:32.081Z,10
2022-11-07T20:04:19.217Z,9.95
2022-11-07T20:06:20.678Z,9.96
2022-11-07T20:08:22.349Z,9.81
2022-11-07T20:10:23.593Z,9.7
2022-11-07T20:12:25.351Z,9.69
2022-11-07T20:14:27.222Z,9.59
2022-11-07T20:16:28.397Z,9.55
2022-11-07T20:18:30.290Z,9.64
2022-11-07T20:20:31.961Z,9.57
2022-11-07T20:22:33.122Z,9.51
2022-11-07T20:24:34.110Z,9.74
2022-11-07T20:26:35.615Z,9.71
2022-11-07T20:28:36.701Z,9.67
2022-11-07T20:30:38.571Z,9.66
2022-11-07T20:32:40.271Z,9.64
2022-11-07T20:34:41.827Z,9.74
2022-11-07T20:36:43.683Z,9.76
2022-11-07T20:38:45.131Z,10.02
2022-11-07T20:40:46.303Z,10.18
2022-11-07T20:42:47.400Z,10.1
2022-11-07T20:44:48.829Z,10.23
2022-11-07T20:46:50.203Z,10.25
2022-11-07T20:48:51.508Z,10.17
2022-11-07T20:50:52.438Z,10.02
2022-11-07T20:52:57.371Z,9.94
2022-11-07T20:54:54.908Z,9.97
2022-11-07T20:56:56.490Z,9.85
2022-11-07T20:58:58.395Z,9.69
2022-11-07T21:01:00.064Z,9.6
2022-11-07T21:03:00.912Z,9.51
2022-11-07T21:05:16.994Z,9.41
2022-11-07T21:07:03.710Z,9.46
2022-11-07T21:09:05.208Z,9.75
2022-11-07T21:11:06.676Z,9.9
2022-11-07T21:13:08.534Z,10.21
2022-11-07T21:15:09.521Z,10.79
2022-11-07T21:17:10.686Z,10.54
2022-11-07T21:19:11.862Z,10.33
2022-11-07T21:21:13.532Z,10.29
2022-11-07T21:23:14.927Z,10
2022-11-07T21:25:16.582Z,9.84
2022-11-07T21:27:17.601Z,9.8
2022-11-07T21:29:19.368Z,9.89
2022-11-07T21:31:21.094Z,9.86
2022-11-07T21:33:22.707Z,9.79
2022-11-07T21:36:07.950Z,9.89
2022-11-07T21:38:09.466Z,9.99
2022-11-07T21:40:10.422Z,10.11
2022-11-07T21:42:12.285Z,10.21
2022-11-07T21:44:13.581Z,10.25
2022-11-07T21:46:15.332Z,10.25
2022-11-07T21:48:16.957Z,10.18
2022-11-07T21:50:38.187Z,10.52
2022-11-07T21:52:19.608Z,10.39
2022-11-07T21:54:20.685Z,10.21
2022-11-07T21:56:22.482Z,10.32
2022-11-07T21:58:23.575Z,10.27
2022-11-07T22:00:24.776Z,10.25
2022-11-07T22:02:26.567Z,9.76
2022-11-07T22:04:28.069Z,9.49
2022-11-07T22:06:29.792Z,9.36
2022-11-07T22:08:31.564Z,9.26
2022-11-07T22:10:32.742Z,9.33
2022-11-07T22:12:34.159Z,9.19
2022-11-07T22:14:36.060Z,9.06
2022-11-07T22:16:37.555Z,9
2022-11-07T22:18:38.887Z,9.13
2022-11-07T22:20:40.519Z,9.54
2022-11-07T22:22:42.460Z,9.77
2022-11-07T22:24:43.978Z,9.8
2022-11-07T22:26:45.763Z,9.29
2022-11-07T22:28:46.808Z,9.08
2022-11-07T22:30:48.203Z,8.91
2022-11-07T22:32:49.627Z,8.96
2022-11-07T22:34:51.142Z,8.9
2022-11-07T22:36:52.744Z,8.92
2022-11-07T22:38:53.754Z,8.75
2022-11-07T22:40:54.769Z,8.59
2022-11-07T22:42:56.220Z,8.5
2022-11-07T22:44:57.547Z,8.37
2022-11-07T22:46:58.785Z,8.3
2022-11-07T22:49:00.396Z,8.2
2022-11-07T22:51:01.419Z,8.11
2022-11-07T22:53:02.994Z,8.47
2022-11-07T22:55:04.360Z,8.53
2022-11-07T22:57:05.744Z,8.73
2022-11-07T22:59:07.487Z,8.84
2022-11-07T23:01:09.279Z,8.96
2022-11-07T23:03:10.797Z,8.93
2022-11-07T23:05:12.338Z,8.6
2022-11-07T23:07:13.961Z,8.51
2022-11-07T23:09:15.214Z,8.57
2022-11-07T23:11:46.234Z,8.51
2022-11-07T23:13:17.235Z,8.47
2022-11-07T23:15:19.035Z,8.39
2022-11-07T23:17:20.329Z,8.5
2022-11-07T23:19:21.845Z,8.59
2022-11-07T23:21:23.691Z,8.58
2022-11-07T23:23:24.648Z,8.49
2022-11-07T23:25:26.323Z,8.4
2022-11-07T23:27:27.438Z,8.3
2022-11-07T23:29:28.584Z,8.13
2022-11-07T23:31:30.240Z,8.03
2022-11-07T23:33:31.288Z,7.94
2022-11-07T23:35:32.394Z,7.73
2022-11-07T23:37:34.213Z,7.62
2022-11-07T23:39:35.391Z,7.56
2022-11-07T23:41:36.787Z,7.61
2022-11-07T23:43:38.694Z,7.8
2022-11-07T23:45:40.477Z,7.81
2022-11-07T23:47:41.585Z,7.8
2022-11-07T23:49:43.315Z,7.7
2022-11-07T23:51:44.866Z,7.74
2022-11-07T23:53:46.385Z,7.77
2022-11-07T23:55:48.294Z,7.57
2022-11-07T23:57:49.802Z,7.47
2022-11-07T23:59:51.213Z,7.45
